createdAt,value
2022-09-21T00:01:11.344Z,0.50
2022-09-21T00:03:39.604Z,0.70
2022-09-21T00:06:09.610Z,1.65
2022-09-21T00:08:36.509Z,1.00
2022-09-21T00:11:05.540Z,1.48
2022-09-21T00:13:34.127Z,0.73
2022-09-21T00:16:01.194Z,1.77
2022-09-21T00:18:28.186Z,1.20
2022-09-21T00:20:54.994Z,2.05
2022-09-21T00:23:21.619Z,4.32
2022-09-21T00:25:48.224Z,1.48
2022-09-21T00:28:14.848Z,1.50
2022-09-21T00:30:41.657Z,1.30
2022-09-21T00:33:08.429Z,4.00
2022-09-21T00:35:35.498Z,1.77
2022-09-21T00:38:03.411Z,1.77
2022-09-21T00:40:32.005Z,2.38
2022-09-21T00:43:15.553Z,1.17
2022-09-21T00:45:44.780Z,3.80
2022-09-21T00:48:11.643Z,1.10
2022-09-21T00:50:42.719Z,1.08
2022-09-21T00:53:09.411Z,1.10
2022-09-21T00:55:46.580Z,1.25
2022-09-21T00:58:18.115Z,1.83
2022-09-21T01:00:44.759Z,1.75
2022-09-21T01:03:13.135Z,1.20
2022-09-21T01:05:39.751Z,1.00
2022-09-21T01:08:11.487Z,0.80
2022-09-21T01:11:08.817Z,1.02
2022-09-21T01:14:01.514Z,0.70
2022-09-21T01:16:34.181Z,0.80
2022-09-21T01:19:38.367Z,0.80
2022-09-21T01:22:30.847Z,1.10
2022-09-21T01:25:19.162Z,1.85
2022-09-21T01:28:20.918Z,1.05
2022-09-21T01:30:53.511Z,3.13
2022-09-21T01:33:32.376Z,1.00
2022-09-21T01:36:09.852Z,0.93
2022-09-21T01:38:43.876Z,1.25
2022-09-21T01:41:14.386Z,1.70
2022-09-21T01:43:46.190Z,1.23
2022-09-21T01:46:17.675Z,1.13
2022-09-21T01:48:54.753Z,1.23
2022-09-21T01:51:27.209Z,4.25
2022-09-21T01:53:59.368Z,2.50
2022-09-21T01:56:33.100Z,1.10
2022-09-21T01:59:27.374Z,1.52
2022-09-21T02:01:58.909Z,4.13
2022-09-21T02:04:25.793Z,1.10
2022-09-21T02:06:53.074Z,1.35
2022-09-21T02:09:20.402Z,0.85
2022-09-21T02:11:47.021Z,1.60
2022-09-21T02:14:18.188Z,1.92
2022-09-21T02:17:07.840Z,1.75
2022-09-21T02:19:38.617Z,1.58
2022-09-21T02:22:10.302Z,0.82
2022-09-21T02:24:47.561Z,1.80
2022-09-21T02:27:29.367Z,0.80
2022-09-21T02:30:02.360Z,1.15
2022-09-21T02:32:35.286Z,1.00
2022-09-21T02:35:13.185Z,2.13
2022-09-21T02:37:48.643Z,0.98
2022-09-21T02:40:30.755Z,0.90
2022-09-21T02:43:06.078Z,1.10
2022-09-21T02:45:41.684Z,0.73
2022-09-21T02:48:17.000Z,0.80
2022-09-21T02:50:53.792Z,1.13
2022-09-21T02:53:36.437Z,1.10
2022-09-21T02:56:07.330Z,0.98
2022-09-21T02:58:45.559Z,1.48
2022-09-21T03:01:15.264Z,2.40
2022-09-21T03:03:42.183Z,1.10
2022-09-21T03:06:08.866Z,1.63
2022-09-21T03:08:35.483Z,2.63
2022-09-21T03:11:02.933Z,1.50
2022-09-21T03:13:30.057Z,2.67
2022-09-21T03:16:05.958Z,2.40
2022-09-21T03:18:33.848Z,1.60
2022-09-21T03:21:01.170Z,2.05
2022-09-21T03:23:28.088Z,1.80
2022-09-21T03:25:57.147Z,1.95
2022-09-21T03:28:24.212Z,2.50
2022-09-21T03:30:52.077Z,2.17
2022-09-21T03:33:20.156Z,1.60
2022-09-21T03:35:48.902Z,1.73
2022-09-21T03:38:16.928Z,1.90
2022-09-21T03:40:50.225Z,1.92
2022-09-21T03:43:18.357Z,1.88
2022-09-21T03:45:45.724Z,2.30
2022-09-21T03:48:13.024Z,3.70
2022-09-21T03:50:39.889Z,2.75
2022-09-21T03:53:07.241Z,2.30
2022-09-21T03:55:34.912Z,4.68
2022-09-21T03:58:02.062Z,5.85
2022-09-21T04:00:29.211Z,3.47
2022-09-21T04:02:55.814Z,7.70
2022-09-21T04:05:23.116Z,4.65
2022-09-21T04:07:50.199Z,2.03
2022-09-21T04:10:19.711Z,2.03
2022-09-21T04:12:47.589Z,4.88
2022-09-21T04:15:16.498Z,12.65
2022-09-21T04:17:43.035Z,7.55
2022-09-21T04:20:09.939Z,6.45
2022-09-21T04:22:41.248Z,2.40
2022-09-21T04:25:11.120Z,8.00
2022-09-21T04:27:37.706Z,7.90
2022-09-21T04:30:05.330Z,11.95
2022-09-21T04:32:32.132Z,12.40
2022-09-21T04:34:58.688Z,13.02
2022-09-21T04:37:25.431Z,11.10
2022-09-21T04:39:52.023Z,11.57
2022-09-21T04:42:18.870Z,4.57
2022-09-21T04:44:45.414Z,11.75
2022-09-21T04:47:12.103Z,4.50
2022-09-21T04:49:38.858Z,7.72
2022-09-21T04:52:06.016Z,9.68
2022-09-21T04:54:32.962Z,8.95
2022-09-21T04:56:59.540Z,6.65
2022-09-21T04:59:26.273Z,3.83
2022-09-21T05:01:52.953Z,10.07
2022-09-21T05:04:19.544Z,10.18
2022-09-21T05:06:46.319Z,14.82
2022-09-21T05:09:31.065Z,6.72
2022-09-21T05:11:58.036Z,7.05
2022-09-21T05:14:24.622Z,7.20
2022-09-21T05:16:51.547Z,9.43
2022-09-21T05:19:18.175Z,8.63
2022-09-21T05:21:44.726Z,5.60
2022-09-21T05:24:11.362Z,3.85
2022-09-21T05:26:38.049Z,4.75
2022-09-21T05:29:05.179Z,3.53
2022-09-21T05:32:10.136Z,5.05
2022-09-21T05:34:55.468Z,5.00
2022-09-21T05:37:38.023Z,2.53
2022-09-21T05:40:06.346Z,4.82
2022-09-21T05:42:33.520Z,1.40
2022-09-21T05:45:00.390Z,3.65
2022-09-21T05:47:40.917Z,5.53
2022-09-21T05:50:19.786Z,11.10
2022-09-21T05:53:04.891Z,6.45
2022-09-21T05:55:47.367Z,10.80
2022-09-21T05:58:52.504Z,3.25
2022-09-21T06:01:25.282Z,5.30
2022-09-21T06:03:54.052Z,4.15
2022-09-21T06:06:21.111Z,3.13
2022-09-21T06:08:47.775Z,5.47
2022-09-21T06:11:14.669Z,4.35
2022-09-21T06:13:41.744Z,3.90
2022-09-21T06:16:08.487Z,6.15
2022-09-21T06:18:39.826Z,4.60
2022-09-21T06:21:08.217Z,7.13
2022-09-21T06:23:35.368Z,2.22
2022-09-21T06:26:02.083Z,3.95
2022-09-21T06:28:29.717Z,1.85
2022-09-21T06:30:58.383Z,1.23
2022-09-21T06:33:25.435Z,3.90
2022-09-21T06:36:00.263Z,3.42
2022-09-21T06:38:28.367Z,6.95
2022-09-21T06:40:55.555Z,3.22
2022-09-21T06:43:22.405Z,1.77
2022-09-21T06:45:57.279Z,2.40
2022-09-21T06:48:24.245Z,1.02
2022-09-21T06:50:51.554Z,4.53
2022-09-21T06:53:18.351Z,2.05
2022-09-21T06:55:45.182Z,8.38
2022-09-21T06:58:11.782Z,1.10
2022-09-21T07:00:38.607Z,0.95
2022-09-21T07:03:05.595Z,0.95
2022-09-21T07:05:34.031Z,1.92
2022-09-21T07:08:01.210Z,2.80
2022-09-21T07:10:28.535Z,0.57
2022-09-21T07:12:55.287Z,0.93
2022-09-21T07:15:21.892Z,1.30
2022-09-21T07:18:05.148Z,1.05
2022-09-21T07:20:32.447Z,0.63
2022-09-21T07:22:59.045Z,0.52
2022-09-21T07:25:25.641Z,0.30
2022-09-21T07:27:52.251Z,1.08
2022-09-21T07:30:19.031Z,0.75
2022-09-21T07:32:45.570Z,0.88
2022-09-21T07:35:12.432Z,0.85
2022-09-21T07:37:39.103Z,1.10
2022-09-21T07:40:06.439Z,1.60
2022-09-21T07:42:33.166Z,2.72
2022-09-21T07:45:06.656Z,2.83
2022-09-21T07:47:33.287Z,2.25
2022-09-21T07:50:18.264Z,1.10
2022-09-21T07:52:44.863Z,0.95
2022-09-21T07:55:11.411Z,2.05
2022-09-21T07:57:56.400Z,1.65
2022-09-21T08:00:23.201Z,1.30
2022-09-21T08:02:49.880Z,1.70
2022-09-21T08:05:16.530Z,0.63
2022-09-21T08:07:43.382Z,1.70
2022-09-21T08:10:10.245Z,0.60
2022-09-21T08:12:36.846Z,0.30
2022-09-21T08:15:03.879Z,0.63
2022-09-21T08:17:30.399Z,3.55
2022-09-21T08:19:57.075Z,1.27
2022-09-21T08:22:24.667Z,2.47
2022-09-21T08:24:52.557Z,0.30
2022-09-21T08:27:20.375Z,1.30
2022-09-21T08:29:46.973Z,0.35
2022-09-21T08:32:32.965Z,1.23
2022-09-21T08:35:00.419Z,1.15
2022-09-21T08:37:27.027Z,0.90
2022-09-21T08:39:53.599Z,1.23
2022-09-21T08:42:42.149Z,0.20
2022-09-21T08:45:16.974Z,0.40
2022-09-21T08:47:53.630Z,0.30
2022-09-21T08:50:28.063Z,0.75
2022-09-21T08:53:01.757Z,0.40
2022-09-21T08:55:28.386Z,0.45
2022-09-21T08:57:55.242Z,1.30
2022-09-21T09:00:21.941Z,1.95
2022-09-21T09:02:51.410Z,1.75
2022-09-21T09:05:33.226Z,0.35
2022-09-21T09:08:12.293Z,2.67
2022-09-21T09:10:47.820Z,0.47
2022-09-21T09:13:40.493Z,1.90
2022-09-21T09:16:33.172Z,1.90
2022-09-21T09:19:17.942Z,0.73
2022-09-21T09:21:45.786Z,0.20
2022-09-21T09:24:23.857Z,0.20
2022-09-21T09:27:00.303Z,1.50
2022-09-21T09:29:42.395Z,3.13
2022-09-21T09:32:14.610Z,0.55
2022-09-21T09:34:53.812Z,1.30
2022-09-21T09:37:29.206Z,0.50
2022-09-21T09:39:59.427Z,2.08
2022-09-21T09:42:32.256Z,0.20
2022-09-21T09:45:29.422Z,0.63
2022-09-21T09:48:18.401Z,0.70
2022-09-21T09:50:45.614Z,2.67
2022-09-21T09:53:25.202Z,0.80
2022-09-21T09:55:54.515Z,0.30
2022-09-21T09:58:45.248Z,0.30
2022-09-21T10:01:43.043Z,5.35
2022-09-21T10:04:17.740Z,0.10
2022-09-21T10:06:46.723Z,1.67
2022-09-21T10:09:28.128Z,0.80
2022-09-21T10:12:14.826Z,0.80
2022-09-21T10:14:49.840Z,0.10
2022-09-21T10:17:17.859Z,0.57
2022-09-21T10:19:45.302Z,3.58
2022-09-21T10:22:20.271Z,0.17
2022-09-21T10:24:51.503Z,1.95
2022-09-21T10:27:25.942Z,0.32
2022-09-21T10:29:52.654Z,0.63
2022-09-21T10:32:23.027Z,0.85
2022-09-21T10:35:05.324Z,0.10
2022-09-21T10:37:41.336Z,0.10
2022-09-21T10:40:28.691Z,0.43
2022-09-21T10:42:58.752Z,0.75
2022-09-21T10:45:26.832Z,2.83
2022-09-21T10:47:57.617Z,1.92
2022-09-21T10:50:35.028Z,0.20
2022-09-21T10:53:10.594Z,1.88
2022-09-21T10:55:58.477Z,0.73
2022-09-21T10:58:34.341Z,0.50
2022-09-21T11:01:31.950Z,0.63
2022-09-21T11:04:05.516Z,2.08
2022-09-21T11:06:39.314Z,0.10
2022-09-21T11:09:32.683Z,0.10
2022-09-21T11:12:25.905Z,0.20
2022-09-21T11:15:23.283Z,1.13
2022-09-21T11:18:14.975Z,0.10
2022-09-21T11:20:50.876Z,0.10
2022-09-21T11:23:23.526Z,0.90
2022-09-21T11:26:03.667Z,0.93
2022-09-21T11:28:49.027Z,0.30
2022-09-21T11:31:32.045Z,0.00
2022-09-21T11:34:27.068Z,0.30
2022-09-21T11:37:06.102Z,0.20
2022-09-21T11:40:07.647Z,0.38
2022-09-21T11:43:02.859Z,0.65
2022-09-21T11:45:51.037Z,0.30
2022-09-21T11:48:36.297Z,2.05
2022-09-21T11:51:45.092Z,3.03
2022-09-21T11:54:29.617Z,0.00
2022-09-21T11:57:02.340Z,0.85
2022-09-21T11:59:45.062Z,1.00
2022-09-21T12:02:37.272Z,2.30
2022-09-21T12:05:19.424Z,0.10
2022-09-21T12:08:28.480Z,0.20
2022-09-21T12:11:26.821Z,0.17
2022-09-21T12:14:28.471Z,0.00
2022-09-21T12:17:33.233Z,0.00
2022-09-21T12:20:24.917Z,0.10
2022-09-21T12:22:56.760Z,0.30
2022-09-21T12:25:23.634Z,0.10
2022-09-21T12:28:11.248Z,1.00
2022-09-21T12:30:41.709Z,1.00
2022-09-21T12:33:37.195Z,1.77
2022-09-21T12:36:21.062Z,0.30
2022-09-21T12:38:55.721Z,0.10
2022-09-21T12:41:32.327Z,0.10
2022-09-21T12:44:06.751Z,0.32
2022-09-21T12:46:40.307Z,0.32
2022-09-21T12:49:19.662Z,0.20
2022-09-21T12:51:57.347Z,1.90
2022-09-21T12:54:46.907Z,0.30
2022-09-21T12:58:04.533Z,0.65
2022-09-21T13:00:22.492Z,0.93
2022-09-21T13:03:07.053Z,0.57
2022-09-21T13:06:06.584Z,0.80
2022-09-21T13:08:38.717Z,0.05
2022-09-21T13:11:08.110Z,0.65
2022-09-21T13:13:45.296Z,0.32
2022-09-21T13:16:26.753Z,0.20
2022-09-21T13:19:13.241Z,0.45
2022-09-21T13:21:40.573Z,0.10
2022-09-21T13:24:24.720Z,0.10
2022-09-21T13:26:55.443Z,0.10
2022-09-21T13:29:22.237Z,0.43
2022-09-21T13:31:59.461Z,0.10
2022-09-21T13:34:29.081Z,0.85
2022-09-21T13:37:20.450Z,1.08
2022-09-21T13:40:02.561Z,0.30
2022-09-21T13:42:32.319Z,0.47
2022-09-21T13:45:06.702Z,2.05
2022-09-21T13:47:36.043Z,0.38
2022-09-21T13:50:16.800Z,0.20
2022-09-21T13:52:52.204Z,0.20
2022-09-21T13:55:42.146Z,0.20
2022-09-21T13:58:24.872Z,0.70
2022-09-21T14:01:03.059Z,1.45
2022-09-21T14:03:38.716Z,0.55
2022-09-21T14:06:10.260Z,0.20
2022-09-21T14:09:00.125Z,0.73
2022-09-21T14:11:34.307Z,0.60
2022-09-21T14:14:22.334Z,0.32
2022-09-21T14:16:58.110Z,0.20
2022-09-21T14:19:29.715Z,0.52
2022-09-21T14:22:08.418Z,2.22
2022-09-21T14:24:43.817Z,0.70
2022-09-21T14:27:45.941Z,0.22
2022-09-21T14:30:22.604Z,0.20
2022-09-21T14:33:12.477Z,0.20
2022-09-21T14:35:43.551Z,1.55
2022-09-21T14:38:51.877Z,0.20
2022-09-21T14:41:23.892Z,0.38
2022-09-21T14:43:54.331Z,0.30
2022-09-21T14:46:40.674Z,0.30
2022-09-21T14:49:19.915Z,0.40
2022-09-21T14:52:31.852Z,2.85
2022-09-21T14:55:01.093Z,0.50
2022-09-21T14:57:37.249Z,2.17
2022-09-21T15:00:22.107Z,1.48
2022-09-21T15:03:00.147Z,1.95
2022-09-21T15:05:44.060Z,0.65
2022-09-21T15:08:47.817Z,2.38
2022-09-21T15:11:27.258Z,0.65
2022-09-21T15:14:28.249Z,0.60
2022-09-21T15:16:54.822Z,1.42
2022-09-21T15:19:27.292Z,0.35
2022-09-21T15:22:15.507Z,0.70
2022-09-21T15:24:53.074Z,0.32
2022-09-21T15:27:24.231Z,0.60
2022-09-21T15:29:53.975Z,1.00
2022-09-21T15:32:38.939Z,0.30
2022-09-21T15:35:27.972Z,0.40
2022-09-21T15:37:56.346Z,0.63
2022-09-21T15:40:25.825Z,0.40
2022-09-21T15:43:19.356Z,3.15
2022-09-21T15:46:00.830Z,0.20
2022-09-21T15:48:41.212Z,0.35
2022-09-21T15:51:46.285Z,0.50
2022-09-21T15:54:21.999Z,1.52
2022-09-21T15:56:48.582Z,2.55
2022-09-21T15:59:20.758Z,1.00
2022-09-21T16:01:50.800Z,0.30
2022-09-21T16:04:23.106Z,0.30
2022-09-21T16:07:04.324Z,0.63
2022-09-21T16:09:45.859Z,0.85
2022-09-21T16:12:33.827Z,0.22
2022-09-21T16:15:11.060Z,0.30
2022-09-21T16:17:38.797Z,0.38
2022-09-21T16:20:23.313Z,1.40
2022-09-21T16:22:55.543Z,1.77
2022-09-21T16:25:37.633Z,1.75
2022-09-21T16:28:17.870Z,0.40
2022-09-21T16:30:51.720Z,2.92
2022-09-21T16:33:41.008Z,0.60
2022-09-21T16:36:25.685Z,3.13
2022-09-21T16:38:56.584Z,3.90
2022-09-21T16:41:26.263Z,0.60
2022-09-21T16:43:54.191Z,0.70
2022-09-21T16:46:20.957Z,0.50
2022-09-21T16:48:47.519Z,1.73
2022-09-21T16:51:22.348Z,0.63
2022-09-21T16:53:48.899Z,2.63
2022-09-21T16:56:16.327Z,0.70
2022-09-21T16:58:44.253Z,0.55
2022-09-21T17:01:16.360Z,0.95
2022-09-21T17:03:43.027Z,3.38
2022-09-21T17:06:18.306Z,4.75
2022-09-21T17:08:49.156Z,5.88
2022-09-21T17:11:20.401Z,7.45
2022-09-21T17:13:48.230Z,4.20
2022-09-21T17:16:19.046Z,5.53
2022-09-21T17:18:46.916Z,3.83
2022-09-21T17:21:14.944Z,5.47
2022-09-21T17:23:42.410Z,3.88
2022-09-21T17:26:17.979Z,5.25
2022-09-21T17:28:45.376Z,5.40
2022-09-21T17:31:14.125Z,3.33
2022-09-21T17:33:41.453Z,4.60
2022-09-21T17:36:13.730Z,3.50
2022-09-21T17:38:40.413Z,4.20
2022-09-21T17:41:18.251Z,4.25
2022-09-21T17:43:58.014Z,5.28
2022-09-21T17:46:27.800Z,4.38
2022-09-21T17:48:54.710Z,3.90
2022-09-21T17:51:40.254Z,4.30
2022-09-21T17:54:07.287Z,6.55
2022-09-21T17:56:51.744Z,3.10
2022-09-21T17:59:28.009Z,3.33
2022-09-21T18:01:59.466Z,3.63
2022-09-21T18:04:28.578Z,6.28
2022-09-21T18:06:55.506Z,3.88
2022-09-21T18:09:22.881Z,5.00
2022-09-21T18:11:55.171Z,5.25
2022-09-21T18:14:22.080Z,4.18
2022-09-21T18:17:00.841Z,4.97
2022-09-21T18:20:01.326Z,3.28
2022-09-21T18:22:57.501Z,2.63
2022-09-21T18:25:48.058Z,3.13
2022-09-21T18:28:40.709Z,3.00
2022-09-21T18:31:25.486Z,4.53
2022-09-21T18:34:00.400Z,5.40
2022-09-21T18:36:42.852Z,3.85
2022-09-21T18:39:40.722Z,3.00
2022-09-21T18:42:39.952Z,2.67
2022-09-21T18:45:23.618Z,3.45
2022-09-21T18:48:13.431Z,3.35
2022-09-21T18:51:25.319Z,3.55
2022-09-21T18:53:55.873Z,5.50
2022-09-21T18:56:24.224Z,4.35
2022-09-21T18:58:51.940Z,5.53
2022-09-21T19:01:22.102Z,5.60
2022-09-21T19:03:49.906Z,5.50
2022-09-21T19:06:34.986Z,5.63
2022-09-21T19:09:19.983Z,4.55
2022-09-21T19:12:20.693Z,5.20
2022-09-21T19:15:15.176Z,5.63
2022-09-21T19:17:51.062Z,5.88
2022-09-21T19:20:42.309Z,5.32
2022-09-21T19:23:24.148Z,6.32
2022-09-21T19:26:08.643Z,7.13
2022-09-21T19:28:46.857Z,7.68
2022-09-21T19:31:18.931Z,7.28
2022-09-21T19:33:50.509Z,6.20
2022-09-21T19:36:19.143Z,6.50
2022-09-21T19:38:46.003Z,6.10
2022-09-21T19:41:31.288Z,6.90
2022-09-21T19:44:10.068Z,6.60
2022-09-21T19:46:52.522Z,6.05
2022-09-21T19:49:20.859Z,6.32
2022-09-21T19:51:48.785Z,6.38
2022-09-21T19:54:39.217Z,5.68
2022-09-21T19:57:40.167Z,6.95
2022-09-21T20:00:10.318Z,6.07
2022-09-21T20:02:40.177Z,6.40
2022-09-21T20:05:12.995Z,5.65
2022-09-21T20:07:45.524Z,6.05
2022-09-21T20:10:29.841Z,6.20
2022-09-21T20:13:31.370Z,6.82
2022-09-21T20:16:38.000Z,6.40
2022-09-21T20:19:21.207Z,6.15
2022-09-21T20:21:58.890Z,5.28
2022-09-21T20:24:34.538Z,5.97
2022-09-21T20:27:03.226Z,6.10
2022-09-21T20:29:29.832Z,5.75
2022-09-21T20:31:56.542Z,5.78
2022-09-21T20:34:23.415Z,5.82
2022-09-21T20:36:50.239Z,5.63
2022-09-21T20:39:16.907Z,6.28
2022-09-21T20:41:43.544Z,5.85
2022-09-21T20:44:12.393Z,5.30
2022-09-21T20:46:38.967Z,5.43
2022-09-21T20:49:08.170Z,4.93
2022-09-21T20:51:36.135Z,4.57
2022-09-21T20:54:03.825Z,5.53
2022-09-21T20:56:30.904Z,5.30
2022-09-21T20:58:57.826Z,4.00
2022-09-21T21:01:24.966Z,4.57
2022-09-21T21:03:51.748Z,4.90
2022-09-21T21:06:21.176Z,4.50
2022-09-21T21:08:48.031Z,4.82
2022-09-21T21:11:14.619Z,5.25
2022-09-21T21:13:41.622Z,5.20
2022-09-21T21:16:12.166Z,5.70
2022-09-21T21:18:42.320Z,6.05
2022-09-21T21:21:09.493Z,4.70
2022-09-21T21:24:02.792Z,4.72
2022-09-21T21:26:50.178Z,4.93
2022-09-21T21:29:16.490Z,4.65
2022-09-21T21:31:43.132Z,4.20
2022-09-21T21:34:09.910Z,4.68
2022-09-21T21:36:36.473Z,6.25
2022-09-21T21:39:03.192Z,7.55
2022-09-21T21:41:31.505Z,12.10
2022-09-21T21:43:58.785Z,12.40
2022-09-21T21:46:25.901Z,16.23
2022-09-21T21:48:52.618Z,12.75
2022-09-21T21:51:19.411Z,12.02
2022-09-21T21:53:46.127Z,10.98
2022-09-21T21:56:16.990Z,7.32
2022-09-21T21:58:44.127Z,6.65
2022-09-21T22:01:22.234Z,5.85
2022-09-21T22:03:54.338Z,7.30
2022-09-21T22:06:21.768Z,5.95
2022-09-21T22:08:49.579Z,6.15
2022-09-21T22:11:17.681Z,4.95
2022-09-21T22:13:45.760Z,5.00
2022-09-21T22:16:18.989Z,5.13
2022-09-21T22:18:46.343Z,4.80
2022-09-21T22:21:17.474Z,4.50
2022-09-21T22:23:44.360Z,3.80
2022-09-21T22:26:15.870Z,4.13
2022-09-21T22:28:45.387Z,3.65
2022-09-21T22:31:15.115Z,3.38
2022-09-21T22:33:42.537Z,3.13
2022-09-21T22:36:14.551Z,2.80
2022-09-21T22:38:43.099Z,3.10
2022-09-21T22:41:12.766Z,3.55
2022-09-21T22:43:40.109Z,5.43
2022-09-21T22:46:07.600Z,3.83
2022-09-21T22:48:35.628Z,3.45
2022-09-21T22:51:03.154Z,3.38
2022-09-21T22:53:31.674Z,3.00
2022-09-21T22:56:04.659Z,3.17
2022-09-21T22:58:32.670Z,2.95
2022-09-21T23:01:10.618Z,3.15
2022-09-21T23:03:38.307Z,3.47
2022-09-21T23:06:07.122Z,2.90
2022-09-21T23:08:34.818Z,3.53
2022-09-21T23:11:10.651Z,3.25
2022-09-21T23:13:37.793Z,3.88
2022-09-21T23:16:06.028Z,3.65
2022-09-21T23:18:33.520Z,3.90
2022-09-21T23:21:02.232Z,3.80
2022-09-21T23:23:29.488Z,3.08
2022-09-21T23:26:05.115Z,3.35
2022-09-21T23:28:33.095Z,3.33
2022-09-21T23:31:02.071Z,3.50
2022-09-21T23:33:40.030Z,3.85
2022-09-21T23:36:08.867Z,3.90
2022-09-21T23:38:36.779Z,4.47
2022-09-21T23:41:12.485Z,4.00
2022-09-21T23:43:41.043Z,4.75
2022-09-21T23:46:09.733Z,4.05
2022-09-21T23:48:37.050Z,4.60
2022-09-21T23:51:04.329Z,4.35
2022-09-21T23:53:32.134Z,4.38
2022-09-21T23:55:59.109Z,3.20
2022-09-21T23:58:27.234Z,4.32
